• Join FlightAware (Why Join?)
  • Login
  • US Flag 
11:52AM EDT


 

Airport Tracker/Info


-or-


 

Live Flight TrackerFlight Track Log ✈ TAM3345 ✈ 07-May-2013 ✈ SBCF / CNF - SBGR / GRU

Flight Track Log - Related Links

Times and Time Zones

All times are in EDT time to prevent confusion due to time zone crossing. See the TAM3345 flight status page for this flight to view local times or setup timezone preferences in your user account.

Time Position Orientation Groundspeed Altitude Reporting Facility
EDT Latitude Longitude Course Direction KTS MPH feet Rate Location/Type
09:58AM -20.9037 -44.7879 211° Southwest  Level Estimated
09:59AM -20.9671 -44.8292 211° Southwest  Level Estimated
10:00AM -21.0305 -44.8706 211° Southwest  Level Estimated
10:01AM -21.0939 -44.9120 211° Southwest  Level Estimated
10:02AM -21.1573 -44.9534 211° Southwest  Level Estimated
10:03AM -21.2206 -44.9948 211° Southwest  Level Estimated
10:04AM -21.2840 -45.0363 211° Southwest  Level Estimated
10:05AM -21.3473 -45.0778 211° Southwest  Level Estimated
10:06AM -21.4107 -45.1194 211° Southwest  Level Estimated
10:07AM -21.4740 -45.1610 211° Southwest  Level Estimated
10:08AM -21.5373 -45.2026 211° Southwest  Level Estimated
10:09AM -21.6006 -45.2443 211° Southwest  Level Estimated
10:10AM -21.6639 -45.2860 211° Southwest  Level Estimated
10:11AM -21.7272 -45.3277 211° Southwest  Level Estimated
10:12AM -21.7904 -45.3695 212° Southwest  Level Estimated
10:13AM -21.8537 -45.4113 212° Southwest  Level Estimated
10:14AM -21.9169 -45.4532 212° Southwest  Level Estimated
10:15AM -21.9802 -45.4951 212° Southwest  Level Estimated
10:16AM -22.0434 -45.5370 212° Southwest  Level Estimated
10:17AM -22.1066 -45.5790 212° Southwest  Level Estimated
10:18AM -22.1698 -45.6210 212° Southwest  Level Estimated
10:19AM -22.2330 -45.6630 212° Southwest  Level Estimated
10:20AM -22.2962 -45.7051 212° Southwest  Level Estimated
10:21AM -22.3593 -45.7472 212° Southwest  Level Estimated
10:22AM -22.4225 -45.7893 212° Southwest  Level Estimated
10:23AM -22.4856 -45.8315 212° Southwest  Level Estimated
10:24AM -22.5488 -45.8738 212° Southwest  Level Estimated
10:25AM -22.6119 -45.9160 212° Southwest  Level Estimated
10:26AM -22.6750 -45.9583 212° Southwest  Level Estimated
10:27AM -22.7381 -46.0007 212° Southwest  Level Estimated
10:28AM -22.8012 -46.0431 212° Southwest  Level Estimated
10:29AM -22.8643 -46.0855 212° Southwest  Level Estimated
10:30AM -22.9273 -46.1280 212° Southwest  Level Estimated
10:31AM -22.9904 -46.1705 212° Southwest  Level Estimated
10:32AM -23.0534 -46.2130 212° Southwest  Level Estimated
10:33AM -23.1165 -46.2556 212° Southwest  Level Estimated
10:34AM -23.1795 -46.2982 212° Southwest  Level Estimated
10:35AM -23.2425 -46.3409 212° Southwest  Level Estimated
10:36AM -23.3055 -46.3836 212° Southwest  Level Estimated
10:37AM -23.3685 -46.4263 212° Southwest  Level Estimated
10:38AM -23.4315 -46.4691 212° Southwest  Level Estimated
10:39AM -23.4321 -46.4695 212° Southwest  Level Estimated
10:40AM -23.4321 -46.4695 350° North  Level Estimated
10:41AM -23.4321 -46.4695 350° North  Level Estimated
10:42AM -23.4321 -46.4695 350° North  Level Estimated
10:43AM -23.4321 -46.4695 350° North  Level Estimated
10:44AM -23.4321 -46.4695 350° North  Level Estimated
10:45AM -23.4321 -46.4695 350° North  Level Estimated
10:46AM -23.4321 -46.4695 350° North  Level Estimated
10:47AM -23.4321 -46.4695 350° North  Level Estimated
10:48AM -23.4321 -46.4695 350° North  Level Estimated
10:49AM -23.4321 -46.4695 350° North  Level Estimated
10:50AM -23.4321 -46.4695 350° North  Level Estimated
10:51AM -23.4321 -46.4695 350° North  Level Estimated
10:52AM -23.4321 -46.4695 350° North  Level Estimated
10:53AM -23.4321 -46.4695 350° North  Level Estimated
10:54AM -23.4321 -46.4695 350° North  Level Estimated